This is the latest recevied weather packets stored in our database for station/object NK7I. If no packets are shown the sender has not sent any weather packets the latest 10 day(s).
| Time | Temp. | Humidity | Pressure | Rain* | Wind** | Luminosity | Snow |
|---|---|---|---|---|---|---|---|
| 1777608082 | 15° C | 46% | 1017.3 hPa | 0 mm | - | 0 W/m² | - |
| 1777607782 | 15.56° C | 45% | 1017.3 hPa | 0 mm | - | 0 W/m² | - |
| 1777607483 | 16.11° C | 44% | 1017.2 hPa | 0 mm | - | 0 W/m² | - |
| 1777607183 | 16.11° C | 43% | 1017.2 hPa | 0 mm | - | 0 W/m² | - |
| 1777606884 | 16.67° C | 42% | 1017.2 hPa | 0 mm | - | 0 W/m² | - |
| 1777606582 | 16.67° C | 39% | 1017.2 hPa | 0 mm | - | 0 W/m² | - |
| 1777606282 | 17.22° C | 37% | 1017.1 hPa | 0 mm | - | 0 W/m² | - |
| 1777605982 | 17.22° C | 38% | 1017 hPa | 0 mm | - | 0 W/m² | - |
| 1777605682 | 17.22° C | 37% | 1017.1 hPa | 0 mm | - | 0 W/m² | - |
| 1777605382 | 17.78° C | 36% | 1017 hPa | 0 mm | - | 0 W/m² | - |
| 1777605082 | 17.78° C | 36% | 1017 hPa | 0 mm | - | 0 W/m² | - |
| 1777604782 | 18.33° C | 36% | 1016.9 hPa | 0 mm | - | 0 W/m² | - |
| 1777604482 | 18.33° C | 35% | 1016.9 hPa | 0 mm | - | 0 W/m² | - |
| 1777604182 | 18.89° C | 35% | 1016.9 hPa | 0 mm | - | 5 W/m² | - |
| 1777603883 | 18.89° C | 36% | 1016.8 hPa | 0 mm | - | 7 W/m² | - |
| 1777603582 | 18.89° C | 34% | 1016.8 hPa | 0 mm | - | 11 W/m² | - |
| 1777603282 | 19.44° C | 33% | 1016.8 hPa | 0 mm | - | 14 W/m² | - |
| 1777602982 | 20° C | 33% | 1016.8 hPa | 0 mm | - | 16 W/m² | - |
| 1777602682 | 20° C | 33% | 1016.9 hPa | 0 mm | - | 19 W/m² | - |
| 1777602382 | 20° C | 32% | 1016.9 hPa | 0 mm | - | 21 W/m² | - |
| 1777601183 | 20.56° C | 32% | 1016.9 hPa | 0 mm | - | 37 W/m² | - |
| 1777585883 | 22.78° C | 30% | 1019.1 hPa | 0 mm | - | 1086 W/m² | - |
| 1777584383 | 22.22° C | 26% | 1019.4 hPa | 0 mm | - | 1158 W/m² | - |
| 1777584083 | 22.22° C | 29% | 1019.5 hPa | 0 mm | - | 1167 W/m² | - |
| 1777583782 | 22.22° C | 28% | 1019.5 hPa | 0 mm | - | 1176 W/m² | - |
* Rain latest hour (hover to see other rain measurements)
** Current wind speed in m/s (hover to see current wind gust speed)